sensor_id;sensor_type;location;lat;lon;timestamp;pressure;altitude;pressure_sealevel;temperature;humidity
70921;BME280;58572;48.110;19.838;2023-04-26T00:00:35;96932.47;;;6.65;72.44
70921;BME280;58572;48.110;19.838;2023-04-26T00:03:04;96975.94;;;7.02;71.82
70921;BME280;58572;48.110;19.838;2023-04-26T00:05:32;96978.03;;;7.11;71.28
70921;BME280;58572;48.110;19.838;2023-04-26T00:08:00;96901.94;;;6.30;72.38
70921;BME280;58572;48.110;19.838;2023-04-26T00:10:28;96991.63;;;6.07;75.30
70921;BME280;58572;48.110;19.838;2023-04-26T00:12:56;96989.59;;;5.58;78.23
70921;BME280;58572;48.110;19.838;2023-04-26T00:15:23;96989.66;;;4.97;81.75
70921;BME280;58572;48.110;19.838;2023-04-26T00:17:50;96992.34;;;4.97;82.34
70921;BME280;58572;48.110;19.838;2023-04-26T00:20:19;96989.41;;;5.29;81.49
70921;BME280;58572;48.110;19.838;2023-04-26T00:22:46;96979.63;;;6.38;75.39
70921;BME280;58572;48.110;19.838;2023-04-26T00:25:13;96704.41;;;4.21;76.04
70921;BME280;58572;48.110;19.838;2023-04-26T00:27:40;96989.38;;;6.34;74.36
70921;BME280;58572;48.110;19.838;2023-04-26T00:30:08;96994.81;;;6.73;73.16
70921;BME280;58572;48.110;19.838;2023-04-26T00:32:36;96991.78;;;6.80;72.38
70921;BME280;58572;48.110;19.838;2023-04-26T00:35:03;96999.09;;;6.35;74.11
70921;BME280;58572;48.110;19.838;2023-04-26T00:37:32;96994.56;;;6.70;72.57
70921;BME280;58572;48.110;19.838;2023-04-26T00:39:59;97001.72;;;6.90;71.72
70921;BME280;58572;48.110;19.838;2023-04-26T00:42:26;97025.94;;;6.61;73.57
70921;BME280;58572;48.110;19.838;2023-04-26T00:44:54;96658.63;;;4.41;72.77
70921;BME280;58572;48.110;19.838;2023-04-26T00:47:22;96955.06;;;5.70;73.96
70921;BME280;58572;48.110;19.838;2023-04-26T00:49:50;97023.03;;;5.62;76.99
70921;BME280;58572;48.110;19.838;2023-04-26T00:52:19;97030.59;;;5.60;76.98
70921;BME280;58572;48.110;19.838;2023-04-26T00:54:48;96902.31;;;5.39;74.90
70921;BME280;58572;48.110;19.838;2023-04-26T00:57:16;96940.63;;;5.16;76.73
70921;BME280;58572;48.110;19.838;2023-04-26T00:59:43;96978.22;;;5.82;77.48
70921;BME280;58572;48.110;19.838;2023-04-26T01:02:10;97020.94;;;6.39;74.38
70921;BME280;58572;48.110;19.838;2023-04-26T01:04:37;97020.53;;;6.66;72.91
70921;BME280;58572;48.110;19.838;2023-04-26T01:07:06;97021.28;;;6.12;73.75
70921;BME280;58572;48.110;19.838;2023-04-26T01:09:34;97021.25;;;6.32;73.56
70921;BME280;58572;48.110;19.838;2023-04-26T01:12:03;97014.31;;;6.06;73.75
70921;BME280;58572;48.110;19.838;2023-04-26T01:14:33;97022.53;;;5.35;78.53
70921;BME280;58572;48.110;19.838;2023-04-26T01:17:01;97018.84;;;6.21;74.79
70921;BME280;58572;48.110;19.838;2023-04-26T01:19:28;97006.31;;;6.45;72.54
70921;BME280;58572;48.110;19.838;2023-04-26T01:21:57;96980.75;;;5.12;76.17
70921;BME280;58572;48.110;19.838;2023-04-26T01:24:25;97006.97;;;6.27;72.92
70921;BME280;58572;48.110;19.838;2023-04-26T01:26:53;97013.13;;;6.37;73.01
70921;BME280;58572;48.110;19.838;2023-04-26T01:29:20;97026.88;;;6.41;72.76
70921;BME280;58572;48.110;19.838;2023-04-26T01:31:48;97031.94;;;6.53;71.72
70921;BME280;58572;48.110;19.838;2023-04-26T01:34:15;97034.66;;;6.48;72.15
70921;BME280;58572;48.110;19.838;2023-04-26T01:36:43;97026.78;;;5.71;74.70
70921;BME280;58572;48.110;19.838;2023-04-26T01:39:10;97035.94;;;4.69;79.84
70921;BME280;58572;48.110;19.838;2023-04-26T01:41:39;96933.31;;;4.25;79.55
70921;BME280;58572;48.110;19.838;2023-04-26T01:44:06;96994.47;;;4.70;79.81
70921;BME280;58572;48.110;19.838;2023-04-26T01:46:34;97031.66;;;4.93;81.86
70921;BME280;58572;48.110;19.838;2023-04-26T01:49:01;97034.09;;;5.05;83.29
70921;BME280;58572;48.110;19.838;2023-04-26T01:51:28;97027.56;;;5.82;75.46
70921;BME280;58572;48.110;19.838;2023-04-26T01:53:55;97039.06;;;6.23;73.74
70921;BME280;58572;48.110;19.838;2023-04-26T01:56:23;97040.72;;;6.14;73.49
70921;BME280;58572;48.110;19.838;2023-04-26T01:58:52;97036.41;;;6.08;72.53
70921;BME280;58572;48.110;19.838;2023-04-26T02:01:20;97043.00;;;5.41;75.81
70921;BME280;58572;48.110;19.838;2023-04-26T02:03:48;97046.50;;;5.57;75.63
70921;BME280;58572;48.110;19.838;2023-04-26T02:06:15;97046.69;;;6.01;73.56
70921;BME280;58572;48.110;19.838;2023-04-26T02:08:42;97030.81;;;5.74;72.50
70921;BME280;58572;48.110;19.838;2023-04-26T02:11:09;97067.53;;;5.29;72.34
70921;BME280;58572;48.110;19.838;2023-04-26T02:13:36;97066.00;;;3.83;79.39
70921;BME280;58572;48.110;19.838;2023-04-26T02:16:05;97063.88;;;4.42;81.21
70921;BME280;58572;48.110;19.838;2023-04-26T02:18:33;97059.19;;;5.31;76.66
70921;BME280;58572;48.110;19.838;2023-04-26T02:21:00;97068.31;;;5.04;79.46
70921;BME280;58572;48.110;19.838;2023-04-26T02:23:27;97066.13;;;4.91;81.48
70921;BME280;58572;48.110;19.838;2023-04-26T02:25:54;97055.41;;;5.42;77.54
70921;BME280;58572;48.110;19.838;2023-04-26T02:28:21;97059.69;;;5.68;75.17
70921;BME280;58572;48.110;19.838;2023-04-26T02:30:48;97059.97;;;5.11;81.82
70921;BME280;58572;48.110;19.838;2023-04-26T02:33:17;97057.81;;;5.08;81.42
70921;BME280;58572;48.110;19.838;2023-04-26T02:35:44;97063.16;;;4.82;82.54
70921;BME280;58572;48.110;19.838;2023-04-26T02:38:11;97060.25;;;5.30;81.02
70921;BME280;58572;48.110;19.838;2023-04-26T02:40:38;96958.66;;;4.54;79.46
70921;BME280;58572;48.110;19.838;2023-04-26T02:43:05;97056.47;;;5.10;81.28
70921;BME280;58572;48.110;19.838;2023-04-26T02:45:40;96967.31;;;4.76;78.52
70921;BME280;58572;48.110;19.838;2023-04-26T02:48:07;97061.00;;;5.81;75.22
70921;BME280;58572;48.110;19.838;2023-04-26T02:50:36;96987.72;;;5.54;75.51
70921;BME280;58572;48.110;19.838;2023-04-26T02:53:03;97056.19;;;5.68;77.23
70921;BME280;58572;48.110;19.838;2023-04-26T02:55:30;97055.41;;;5.37;78.97
70921;BME280;58572;48.110;19.838;2023-04-26T02:57:57;97065.91;;;5.49;76.43
70921;BME280;58572;48.110;19.838;2023-04-26T03:00:25;97059.91;;;4.80;80.87
70921;BME280;58572;48.110;19.838;2023-04-26T03:02:53;97063.72;;;5.91;75.60
70921;BME280;58572;48.110;19.838;2023-04-26T03:05:21;97065.09;;;5.53;76.53
70921;BME280;58572;48.110;19.838;2023-04-26T03:07:50;97017.66;;;4.96;79.88
70921;BME280;58572;48.110;19.838;2023-04-26T03:10:17;97077.47;;;5.08;82.93
70921;BME280;58572;48.110;19.838;2023-04-26T03:12:45;97018.78;;;5.26;78.89
70921;BME280;58572;48.110;19.838;2023-04-26T03:15:12;96994.75;;;5.39;76.45
70921;BME280;58572;48.110;19.838;2023-04-26T03:17:39;96891.09;;;4.71;74.56
70921;BME280;58572;48.110;19.838;2023-04-26T03:20:08;97077.47;;;5.80;75.18
70921;BME280;58572;48.110;19.838;2023-04-26T03:22:36;97085.56;;;5.85;77.04
70921;BME280;58572;48.110;19.838;2023-04-26T03:25:06;97089.38;;;5.48;78.49
70921;BME280;58572;48.110;19.838;2023-04-26T03:27:33;96957.88;;;4.64;77.80
70921;BME280;58572;48.110;19.838;2023-04-26T03:30:00;97095.28;;;5.70;77.19
70921;BME280;58572;48.110;19.838;2023-04-26T03:32:28;97095.53;;;5.74;75.93
70921;BME280;58572;48.110;19.838;2023-04-26T03:34:55;97094.72;;;5.94;76.56
70921;BME280;58572;48.110;19.838;2023-04-26T03:37:23;97099.59;;;5.56;75.88
70921;BME280;58572;48.110;19.838;2023-04-26T03:39:50;97110.38;;;5.66;76.85
70921;BME280;58572;48.110;19.838;2023-04-26T03:42:20;97094.16;;;6.07;74.07
70921;BME280;58572;48.110;19.838;2023-04-26T03:44:47;97106.06;;;5.70;75.81
70921;BME280;58572;48.110;19.838;2023-04-26T03:47:14;97065.66;;;5.40;77.82
70921;BME280;58572;48.110;19.838;2023-04-26T03:49:41;97081.28;;;5.48;77.57
70921;BME280;58572;48.110;19.838;2023-04-26T03:52:08;97112.00;;;5.47;78.50
70921;BME280;58572;48.110;19.838;2023-04-26T03:54:35;97082.34;;;5.52;76.44
70921;BME280;58572;48.110;19.838;2023-04-26T03:57:03;97075.06;;;5.17;78.59
70921;BME280;58572;48.110;19.838;2023-04-26T03:59:32;97114.69;;;5.52;79.57
70921;BME280;58572;48.110;19.838;2023-04-26T04:01:59;97113.88;;;5.21;82.60
70921;BME280;58572;48.110;19.838;2023-04-26T04:04:26;97038.66;;;4.84;78.89
70921;BME280;58572;48.110;19.838;2023-04-26T04:06:53;97122.25;;;5.60;80.22
70921;BME280;58572;48.110;19.838;2023-04-26T04:09:20;97124.41;;;5.58;79.12
70921;BME280;58572;48.110;19.838;2023-04-26T04:11:47;97125.69;;;5.05;82.09
70921;BME280;58572;48.110;19.838;2023-04-26T04:14:14;97123.88;;;5.46;77.47
70921;BME280;58572;48.110;19.838;2023-04-26T04:16:43;97133.28;;;5.23;80.04
70921;BME280;58572;48.110;19.838;2023-04-26T04:19:11;97125.47;;;5.42;79.35
70921;BME280;58572;48.110;19.838;2023-04-26T04:21:38;97129.78;;;5.38;80.14
70921;BME280;58572;48.110;19.838;2023-04-26T04:24:07;96863.56;;;3.77;77.30
70921;BME280;58572;48.110;19.838;2023-04-26T04:26:35;97136.19;;;5.06;81.58
70921;BME280;58572;48.110;19.838;2023-04-26T04:29:02;97134.59;;;5.10;81.74
70921;BME280;58572;48.110;19.838;2023-04-26T04:31:33;97141.13;;;5.45;79.63
70921;BME280;58572;48.110;19.838;2023-04-26T04:34:02;97142.19;;;5.29;79.02
70921;BME280;58572;48.110;19.838;2023-04-26T04:36:29;97141.59;;;5.17;80.19
70921;BME280;58572;48.110;19.838;2023-04-26T04:38:57;97141.59;;;5.11;82.25
70921;BME280;58572;48.110;19.838;2023-04-26T04:41:24;97152.38;;;5.11;81.49
70921;BME280;58572;48.110;19.838;2023-04-26T04:43:52;97167.25;;;5.34;78.86
70921;BME280;58572;48.110;19.838;2023-04-26T04:46:19;97157.31;;;5.55;77.69
70921;BME280;58572;48.110;19.838;2023-04-26T04:48:47;97156.78;;;5.99;76.71
70921;BME280;58572;48.110;19.838;2023-04-26T04:51:15;97125.09;;;4.82;81.81
70921;BME280;58572;48.110;19.838;2023-04-26T04:53:43;97161.06;;;5.49;78.87
70921;BME280;58572;48.110;19.838;2023-04-26T04:56:10;97159.44;;;5.43;81.40
70921;BME280;58572;48.110;19.838;2023-04-26T04:58:37;97165.94;;;5.72;76.63
70921;BME280;58572;48.110;19.838;2023-04-26T05:01:04;97165.38;;;5.35;82.72
70921;BME280;58572;48.110;19.838;2023-04-26T05:03:31;97099.34;;;5.32;80.58
70921;BME280;58572;48.110;19.838;2023-04-26T05:05:59;97172.38;;;5.41;82.72
70921;BME280;58572;48.110;19.838;2023-04-26T05:08:28;97169.44;;;5.58;80.21
70921;BME280;58572;48.110;19.838;2023-04-26T05:10:58;97151.09;;;5.44;82.19
70921;BME280;58572;48.110;19.838;2023-04-26T05:13:25;97170.81;;;5.91;78.01
70921;BME280;58572;48.110;19.838;2023-04-26T05:15:52;97173.78;;;5.89;78.70
70921;BME280;58572;48.110;19.838;2023-04-26T05:18:20;97178.91;;;5.91;77.82
70921;BME280;58572;48.110;19.838;2023-04-26T05:20:47;97184.56;;;5.94;77.44
70921;BME280;58572;48.110;19.838;2023-04-26T05:23:15;97177.22;;;6.46;74.72
70921;BME280;58572;48.110;19.838;2023-04-26T05:25:44;97184.41;;;6.81;71.43
70921;BME280;58572;48.110;19.838;2023-04-26T05:28:11;97187.28;;;6.99;71.81
70921;BME280;58572;48.110;19.838;2023-04-26T05:30:38;97186.72;;;7.02;73.34
70921;BME280;58572;48.110;19.838;2023-04-26T05:33:06;97192.81;;;6.69;74.65
70921;BME280;58572;48.110;19.838;2023-04-26T05:35:33;97193.38;;;6.61;73.42
70921;BME280;58572;48.110;19.838;2023-04-26T05:38:00;97193.59;;;6.75;72.98
70921;BME280;58572;48.110;19.838;2023-04-26T05:40:28;97189.31;;;6.63;72.66
70921;BME280;58572;48.110;19.838;2023-04-26T05:42:57;97184.84;;;6.98;71.81
70921;BME280;58572;48.110;19.838;2023-04-26T05:45:24;97191.94;;;6.89;72.06
70921;BME280;58572;48.110;19.838;2023-04-26T05:47:52;97195.06;;;7.11;71.29
70921;BME280;58572;48.110;19.838;2023-04-26T05:50:19;97190.75;;;7.10;70.49
70921;BME280;58572;48.110;19.838;2023-04-26T05:52:46;97197.91;;;6.76;71.60
70921;BME280;58572;48.110;19.838;2023-04-26T05:55:13;97152.31;;;6.64;71.33
70921;BME280;58572;48.110;19.838;2023-04-26T05:57:40;97202.44;;;6.95;71.42
70921;BME280;58572;48.110;19.838;2023-04-26T06:00:11;97204.28;;;7.05;71.84
70921;BME280;58572;48.110;19.838;2023-04-26T06:02:38;97204.25;;;7.10;73.30
70921;BME280;58572;48.110;19.838;2023-04-26T06:05:06;97203.50;;;6.99;74.07
70921;BME280;58572;48.110;19.838;2023-04-26T06:07:34;97209.06;;;7.23;71.39
70921;BME280;58572;48.110;19.838;2023-04-26T06:10:01;97205.00;;;7.26;71.56
70921;BME280;58572;48.110;19.838;2023-04-26T06:12:28;97196.00;;;6.81;70.77
70921;BME280;58572;48.110;19.838;2023-04-26T06:14:56;97191.03;;;7.09;69.89
70921;BME280;58572;48.110;19.838;2023-04-26T06:17:24;97226.03;;;7.39;70.93
70921;BME280;58572;48.110;19.838;2023-04-26T06:19:51;97106.00;;;6.91;70.91
70921;BME280;58572;48.110;19.838;2023-04-26T06:22:18;97140.34;;;6.85;69.41
70921;BME280;58572;48.110;19.838;2023-04-26T06:24:45;97226.34;;;7.32;70.71
70921;BME280;58572;48.110;19.838;2023-04-26T06:27:13;97229.69;;;7.63;69.85
70921;BME280;58572;48.110;19.838;2023-04-26T06:29:40;97100.19;;;7.13;67.73
70921;BME280;58572;48.110;19.838;2023-04-26T06:32:08;97239.41;;;7.64;68.98
70921;BME280;58572;48.110;19.838;2023-04-26T06:34:37;97203.53;;;7.49;68.84
70921;BME280;58572;48.110;19.838;2023-04-26T06:37:04;97237.38;;;7.41;69.76
70921;BME280;58572;48.110;19.838;2023-04-26T06:39:32;97238.72;;;7.88;66.89
70921;BME280;58572;48.110;19.838;2023-04-26T06:41:59;97241.81;;;8.05;64.60
70921;BME280;58572;48.110;19.838;2023-04-26T06:44:27;97236.25;;;8.25;65.34
70921;BME280;58572;48.110;19.838;2023-04-26T06:46:55;97236.47;;;8.29;67.11
70921;BME280;58572;48.110;19.838;2023-04-26T06:49:22;97061.03;;;6.66;67.48
70921;BME280;58572;48.110;19.838;2023-04-26T06:51:51;97244.31;;;7.57;68.94
70921;BME280;58572;48.110;19.838;2023-04-26T06:54:18;97252.00;;;8.18;67.13
70921;BME280;58572;48.110;19.838;2023-04-26T06:56:46;97247.31;;;7.95;65.41
70921;BME280;58572;48.110;19.838;2023-04-26T06:59:13;97256.22;;;8.40;66.07
70921;BME280;58572;48.110;19.838;2023-04-26T07:01:40;97260.38;;;8.22;67.42
70921;BME280;58572;48.110;19.838;2023-04-26T07:04:07;97254.78;;;8.47;65.91
70921;BME280;58572;48.110;19.838;2023-04-26T07:06:35;97260.25;;;8.03;62.96
70921;BME280;58572;48.110;19.838;2023-04-26T07:09:04;97260.22;;;8.08;62.53
70921;BME280;58572;48.110;19.838;2023-04-26T07:11:32;97226.84;;;7.84;63.02
70921;BME280;58572;48.110;19.838;2023-04-26T07:14:00;97260.16;;;9.05;62.66
70921;BME280;58572;48.110;19.838;2023-04-26T07:16:27;97260.16;;;9.05;63.77
70921;BME280;58572;48.110;19.838;2023-04-26T07:18:55;97249.50;;;9.56;61.17
70921;BME280;58572;48.110;19.838;2023-04-26T07:21:23;97256.25;;;9.78;64.29
70921;BME280;58572;48.110;19.838;2023-04-26T07:23:53;97258.75;;;9.93;61.92
70921;BME280;58572;48.110;19.838;2023-04-26T07:26:21;97267.28;;;9.44;61.40
70921;BME280;58572;48.110;19.838;2023-04-26T07:28:49;97261.88;;;10.19;60.92
70921;BME280;58572;48.110;19.838;2023-04-26T07:31:17;97216.22;;;10.21;61.35
70921;BME280;58572;48.110;19.838;2023-04-26T07:33:44;97267.25;;;10.43;56.20
70921;BME280;58572;48.110;19.838;2023-04-26T07:36:11;97264.63;;;10.98;57.19
70921;BME280;58572;48.110;19.838;2023-04-26T07:38:39;97266.34;;;11.07;57.83
70921;BME280;58572;48.110;19.838;2023-04-26T07:41:06;97156.84;;;10.61;57.41
70921;BME280;58572;48.110;19.838;2023-04-26T07:43:35;97272.09;;;11.33;59.18
70921;BME280;58572;48.110;19.838;2023-04-26T07:46:02;97268.03;;;11.72;58.08
70921;BME280;58572;48.110;19.838;2023-04-26T07:48:29;97270.81;;;12.75;55.63
70921;BME280;58572;48.110;19.838;2023-04-26T07:50:56;97277.69;;;12.72;52.67
70921;BME280;58572;48.110;19.838;2023-04-26T07:53:23;97283.59;;;12.07;56.00
70921;BME280;58572;48.110;19.838;2023-04-26T07:55:51;97262.47;;;11.77;49.67
70921;BME280;58572;48.110;19.838;2023-04-26T07:58:18;97281.03;;;12.47;55.02
70921;BME280;58572;48.110;19.838;2023-04-26T08:00:47;97273.19;;;13.38;53.56
70921;BME280;58572;48.110;19.838;2023-04-26T08:03:14;97288.09;;;11.90;56.32
70921;BME280;58572;48.110;19.838;2023-04-26T08:05:42;97290.31;;;11.74;54.01
70921;BME280;58572;48.110;19.838;2023-04-26T08:08:09;97299.22;;;11.66;51.71
70921;BME280;58572;48.110;19.838;2023-04-26T08:10:39;97288.44;;;13.00;50.65
70921;BME280;58572;48.110;19.838;2023-04-26T08:13:07;97280.78;;;13.50;50.02
70921;BME280;58572;48.110;19.838;2023-04-26T08:15:34;97292.69;;;12.39;53.14
70921;BME280;58572;48.110;19.838;2023-04-26T08:18:03;97278.75;;;12.40;52.03
70921;BME280;58572;48.110;19.838;2023-04-26T08:20:30;97253.53;;;12.12;53.16
70921;BME280;58572;48.110;19.838;2023-04-26T08:22:58;97271.53;;;12.22;49.75
70921;BME280;58572;48.110;19.838;2023-04-26T08:25:25;97306.66;;;12.60;53.28
70921;BME280;58572;48.110;19.838;2023-04-26T08:27:53;97302.28;;;12.00;45.43
70921;BME280;58572;48.110;19.838;2023-04-26T08:30:20;97300.56;;;12.04;48.08
70921;BME280;58572;48.110;19.838;2023-04-26T08:32:48;97277.31;;;13.19;51.92
70921;BME280;58572;48.110;19.838;2023-04-26T08:35:16;97298.63;;;12.86;51.92
70921;BME280;58572;48.110;19.838;2023-04-26T08:37:44;97312.88;;;12.38;54.71
70921;BME280;58572;48.110;19.838;2023-04-26T08:40:11;97316.66;;;11.65;47.04
70921;BME280;58572;48.110;19.838;2023-04-26T08:42:40;97149.81;;;11.87;52.89
70921;BME280;58572;48.110;19.838;2023-04-26T08:45:09;97320.22;;;12.73;50.87
70921;BME280;58572;48.110;19.838;2023-04-26T08:47:41;97302.94;;;14.23;51.49
70921;BME280;58572;48.110;19.838;2023-04-26T08:50:11;97266.94;;;14.03;50.53
70921;BME280;58572;48.110;19.838;2023-04-26T08:52:41;97307.09;;;13.94;50.64
70921;BME280;58572;48.110;19.838;2023-04-26T08:55:09;97316.44;;;13.45;50.61
70921;BME280;58572;48.110;19.838;2023-04-26T08:57:38;97314.94;;;13.79;51.73
70921;BME280;58572;48.110;19.838;2023-04-26T09:00:07;97313.69;;;13.93;49.86
70921;BME280;58572;48.110;19.838;2023-04-26T09:02:37;97306.16;;;14.25;49.08
70921;BME280;58572;48.110;19.838;2023-04-26T09:05:06;97317.31;;;13.01;50.63
70921;BME280;58572;48.110;19.838;2023-04-26T09:07:40;97319.28;;;13.09;47.38
70921;BME280;58572;48.110;19.838;2023-04-26T09:10:10;97311.59;;;13.90;48.09
70921;BME280;58572;48.110;19.838;2023-04-26T09:12:38;97320.53;;;13.65;50.60
70921;BME280;58572;48.110;19.838;2023-04-26T09:15:06;97319.81;;;13.51;49.95
70921;BME280;58572;48.110;19.838;2023-04-26T09:17:34;97315.41;;;13.72;50.99
70921;BME280;58572;48.110;19.838;2023-04-26T09:20:17;97314.94;;;13.70;48.75
70921;BME280;58572;48.110;19.838;2023-04-26T09:22:47;97256.28;;;13.76;42.73
70921;BME280;58572;48.110;19.838;2023-04-26T09:25:16;97312.19;;;13.30;51.12
70921;BME280;58572;48.110;19.838;2023-04-26T09:27:44;97319.72;;;14.64;49.08
70921;BME280;58572;48.110;19.838;2023-04-26T09:30:14;97243.31;;;13.33;48.30
70921;BME280;58572;48.110;19.838;2023-04-26T09:32:51;97336.16;;;12.22;43.69
70921;BME280;58572;48.110;19.838;2023-04-26T09:35:28;97319.97;;;11.89;45.66
70921;BME280;58572;48.110;19.838;2023-04-26T09:37:58;97312.91;;;14.19;45.16
70921;BME280;58572;48.110;19.838;2023-04-26T09:40:29;97326.13;;;14.86;46.95
70921;BME280;58572;48.110;19.838;2023-04-26T09:42:58;97332.78;;;13.76;45.51
70921;BME280;58572;48.110;19.838;2023-04-26T09:45:25;97238.38;;;13.44;47.41
70921;BME280;58572;48.110;19.838;2023-04-26T09:47:53;97317.44;;;14.32;48.00
70921;BME280;58572;48.110;19.838;2023-04-26T09:50:27;97325.47;;;14.37;47.62
70921;BME280;58572;48.110;19.838;2023-04-26T09:52:54;97316.34;;;14.67;45.41
70921;BME280;58572;48.110;19.838;2023-04-26T09:55:29;97324.22;;;14.52;45.71
70921;BME280;58572;48.110;19.838;2023-04-26T09:57:57;97320.66;;;14.25;46.88
70921;BME280;58572;48.110;19.838;2023-04-26T10:00:26;97190.03;;;14.48;45.21
70921;BME280;58572;48.110;19.838;2023-04-26T10:02:53;97319.50;;;16.39;45.01
70921;BME280;58572;48.110;19.838;2023-04-26T10:05:21;97276.19;;;15.44;45.83
70921;BME280;58572;48.110;19.838;2023-04-26T10:07:49;97312.69;;;15.19;46.64
70921;BME280;58572;48.110;19.838;2023-04-26T10:10:17;97253.41;;;14.50;47.24
70921;BME280;58572;48.110;19.838;2023-04-26T10:12:47;97323.00;;;15.22;45.35
70921;BME280;58572;48.110;19.838;2023-04-26T10:15:14;97312.31;;;14.74;45.26
70921;BME280;58572;48.110;19.838;2023-04-26T10:17:41;97318.09;;;14.72;44.72
70921;BME280;58572;48.110;19.838;2023-04-26T10:20:11;97320.66;;;14.86;46.60
70921;BME280;58572;48.110;19.838;2023-04-26T10:22:42;97318.78;;;15.24;44.62
70921;BME280;58572;48.110;19.838;2023-04-26T10:25:11;97321.28;;;14.31;44.66
70921;BME280;58572;48.110;19.838;2023-04-26T10:27:52;97317.59;;;14.87;47.11
70921;BME280;58572;48.110;19.838;2023-04-26T10:30:21;97330.34;;;14.75;45.93
70921;BME280;58572;48.110;19.838;2023-04-26T10:33:10;97312.00;;;15.77;44.76
70921;BME280;58572;48.110;19.838;2023-04-26T10:36:10;97323.91;;;15.81;44.84
70921;BME280;58572;48.110;19.838;2023-04-26T10:38:39;97305.34;;;14.93;41.70
70921;BME280;58572;48.110;19.838;2023-04-26T10:41:29;97322.91;;;14.84;48.19
70921;BME280;58572;48.110;19.838;2023-04-26T10:43:59;97325.50;;;14.89;45.46
70921;BME280;58572;48.110;19.838;2023-04-26T10:46:37;97328.38;;;14.32;48.04
70921;BME280;58572;48.110;19.838;2023-04-26T10:49:18;97133.25;;;13.07;41.66
70921;BME280;58572;48.110;19.838;2023-04-26T10:52:09;97330.81;;;14.42;42.50
70921;BME280;58572;48.110;19.838;2023-04-26T10:54:51;97335.63;;;14.54;47.12
70921;BME280;58572;48.110;19.838;2023-04-26T10:57:19;97343.44;;;14.03;43.68
70921;BME280;58572;48.110;19.838;2023-04-26T11:03:05;97333.41;;;13.33;42.54
70921;BME280;58572;48.110;19.838;2023-04-26T11:05:51;97339.59;;;14.04;48.37
70921;BME280;58572;48.110;19.838;2023-04-26T11:08:25;97336.75;;;14.53;45.83
70921;BME280;58572;48.110;19.838;2023-04-26T11:10:58;97335.50;;;14.59;44.52
70921;BME280;58572;48.110;19.838;2023-04-26T11:13:31;97299.91;;;14.24;40.07
70921;BME280;58572;48.110;19.838;2023-04-26T11:15:59;97330.69;;;15.28;44.72
70921;BME280;58572;48.110;19.838;2023-04-26T11:18:30;97276.56;;;14.79;40.32
70921;BME280;58572;48.110;19.838;2023-04-26T11:20:57;97312.69;;;15.19;43.73
70921;BME280;58572;48.110;19.838;2023-04-26T11:23:24;97347.06;;;14.82;38.09
70921;BME280;58572;48.110;19.838;2023-04-26T11:25:52;97331.56;;;15.96;37.46
70921;BME280;58572;48.110;19.838;2023-04-26T11:28:19;97299.41;;;13.96;37.79
70921;BME280;58572;48.110;19.838;2023-04-26T11:30:48;97345.09;;;14.39;43.56
70921;BME280;58572;48.110;19.838;2023-04-26T11:33:16;97348.47;;;14.27;38.18
70921;BME280;58572;48.110;19.838;2023-04-26T11:35:46;97348.66;;;14.48;43.08
70921;BME280;58572;48.110;19.838;2023-04-26T11:38:13;97352.84;;;14.46;44.39
70921;BME280;58572;48.110;19.838;2023-04-26T11:40:40;97350.16;;;13.89;43.63
70921;BME280;58572;48.110;19.838;2023-04-26T11:43:08;97349.00;;;14.81;40.85
70921;BME280;58572;48.110;19.838;2023-04-26T11:45:36;97347.09;;;14.64;42.19
70921;BME280;58572;48.110;19.838;2023-04-26T11:48:06;97331.81;;;14.63;40.63
70921;BME280;58572;48.110;19.838;2023-04-26T11:50:35;97349.00;;;14.73;43.77
70921;BME280;58572;48.110;19.838;2023-04-26T11:53:08;97353.66;;;14.55;42.16
70921;BME280;58572;48.110;19.838;2023-04-26T11:55:38;97347.22;;;13.68;39.38
70921;BME280;58572;48.110;19.838;2023-04-26T11:58:10;97352.66;;;14.33;40.94
70921;BME280;58572;48.110;19.838;2023-04-26T12:00:56;97334.63;;;15.10;41.99
70921;BME280;58572;48.110;19.838;2023-04-26T12:03:28;97338.84;;;15.63;42.08
70921;BME280;58572;48.110;19.838;2023-04-26T12:05:56;97331.00;;;14.72;40.11
70921;BME280;58572;48.110;19.838;2023-04-26T12:08:24;97346.59;;;14.80;37.19
70921;BME280;58572;48.110;19.838;2023-04-26T12:10:52;97336.44;;;15.44;40.86
70921;BME280;58572;48.110;19.838;2023-04-26T12:13:19;97344.72;;;16.53;41.24
70921;BME280;58572;48.110;19.838;2023-04-26T12:15:47;97341.00;;;16.79;38.56
70921;BME280;58572;48.110;19.838;2023-04-26T12:18:16;97320.88;;;16.04;42.07
70921;BME280;58572;48.110;19.838;2023-04-26T12:20:43;97337.22;;;16.63;41.01
70921;BME280;58572;48.110;19.838;2023-04-26T12:23:13;97338.47;;;16.74;36.99
70921;BME280;58572;48.110;19.838;2023-04-26T12:25:52;97355.59;;;14.89;39.91
70921;BME280;58572;48.110;19.838;2023-04-26T12:28:21;97310.66;;;14.98;36.93
70921;BME280;58572;48.110;19.838;2023-04-26T12:30:50;97337.19;;;15.71;39.02
70921;BME280;58572;48.110;19.838;2023-04-26T12:33:18;97340.44;;;16.44;40.34
70921;BME280;58572;48.110;19.838;2023-04-26T12:35:47;97260.97;;;16.89;35.05
70921;BME280;58572;48.110;19.838;2023-04-26T12:38:15;97338.94;;;18.27;29.64
70921;BME280;58572;48.110;19.838;2023-04-26T12:40:44;97347.31;;;17.24;35.85
70921;BME280;58572;48.110;19.838;2023-04-26T12:43:11;97347.09;;;18.24;37.02
70921;BME280;58572;48.110;19.838;2023-04-26T12:45:40;97344.59;;;18.59;36.91
70921;BME280;58572;48.110;19.838;2023-04-26T12:48:07;97345.22;;;18.40;35.45
70921;BME280;58572;48.110;19.838;2023-04-26T12:50:34;97343.44;;;17.26;37.69
70921;BME280;58572;48.110;19.838;2023-04-26T12:53:01;97333.66;;;20.40;36.41
70921;BME280;58572;48.110;19.838;2023-04-26T12:55:29;97303.78;;;20.46;33.75
70921;BME280;58572;48.110;19.838;2023-04-26T12:57:58;97345.66;;;19.82;32.80
70921;BME280;58572;48.110;19.838;2023-04-26T13:00:25;97343.84;;;20.05;33.36
70921;BME280;58572;48.110;19.838;2023-04-26T13:02:52;97350.66;;;17.75;30.26
70921;BME280;58572;48.110;19.838;2023-04-26T13:05:21;97345.03;;;19.29;33.70